Time;durP1;ratioP1;P1;durP2;ratioP2;P2;SDS_P1;SDS_P2;PMS_P1;PMS_P2;Temp;Humidity;BMP_temperature;BMP_pressure;BME280_temperature;BME280_humidity;BME280_pressure;Samples;Min_cycle;Max_cycle;Signal;HPM_P1;HPM_P2
2023/05/25 00:00:53;;;;;;;1.40;0.60;;;12.50;99.90;;;;;;5097506;28;20464;-58
2023/05/25 00:03:20;;;;;;;3.78;0.60;;;12.60;99.90;;;;;;5097230;28;20841;-58
2023/05/25 00:05:47;;;;;;;2.17;0.70;;;12.60;99.90;;;;;;5097655;28;20425;-58
2023/05/25 00:08:14;;;;;;;2.70;0.70;;;12.50;99.90;;;;;;5097495;28;20458;-58
2023/05/25 00:10:41;;;;;;;1.90;0.57;;;12.40;99.90;;;;;;5097359;28;20438;-58
2023/05/25 00:13:09;;;;;;;2.17;0.70;;;12.40;99.90;;;;;;5096877;28;20452;-58
2023/05/25 00:15:37;;;;;;;1.98;0.60;;;12.30;99.90;;;;;;5097166;28;20414;-59
2023/05/25 00:18:04;;;;;;;1.90;0.60;;;12.30;99.90;;;;;;5097287;28;20447;-58
2023/05/25 00:20:31;;;;;;;1.40;0.60;;;12.30;99.90;;;;;;5096829;28;20498;-58
2023/05/25 00:23:01;;;;;;;1.20;0.60;;;12.40;99.90;;;;;;5096880;28;20434;-58
2023/05/25 00:25:28;;;;;;;1.73;0.70;;;12.50;99.90;;;;;;5097130;28;20883;-59
2023/05/25 00:27:55;;;;;;;1.30;0.60;;;12.40;99.90;;;;;;5096634;28;20422;-58
2023/05/25 00:30:22;;;;;;;1.50;0.60;;;12.40;99.90;;;;;;5096652;28;20459;-58
2023/05/25 00:32:52;;;;;;;2.10;0.60;;;12.50;99.90;;;;;;5096919;28;20430;-58
2023/05/25 00:35:19;;;;;;;1.20;0.63;;;12.50;99.90;;;;;;5096493;28;20839;-58
2023/05/25 00:37:46;;;;;;;2.70;0.70;;;12.50;99.90;;;;;;5096192;28;20425;-58
2023/05/25 00:40:15;;;;;;;1.70;0.50;;;12.40;99.90;;;;;;5096894;28;20414;-58
2023/05/25 00:42:44;;;;;;;2.17;0.60;;;12.50;99.90;;;;;;5096815;28;20504;-57
2023/05/25 00:45:11;;;;;;;2.40;0.60;;;12.50;99.90;;;;;;5096807;28;20429;-59
2023/05/25 00:47:40;;;;;;;3.28;0.70;;;12.50;99.90;;;;;;5095911;28;20887;-57
2023/05/25 00:50:10;;;;;;;2.80;0.60;;;12.60;99.90;;;;;;5096262;28;20433;-57
2023/05/25 00:52:37;;;;;;;2.60;0.70;;;12.70;99.90;;;;;;5096259;28;20432;-56
2023/05/25 00:55:08;;;;;;;1.15;0.60;;;12.70;99.90;;;;;;5096597;28;20534;-57
2023/05/25 00:57:37;;;;;;;2.17;0.70;;;12.80;99.90;;;;;;5096086;28;20486;-57
2023/05/25 01:00:10;;;;;;;1.40;0.60;;;12.80;99.90;;;;;;5095790;28;20524;-57
2023/05/25 01:02:40;;;;;;;1.42;0.50;;;12.70;99.90;;;;;;5094899;28;20430;-56
2023/05/25 01:05:12;;;;;;;1.92;0.60;;;12.70;99.90;;;;;;5096316;28;20437;-57
2023/05/25 01:07:42;;;;;;;2.60;0.60;;;12.70;99.90;;;;;;5096034;28;20494;-57
2023/05/25 01:10:11;;;;;;;1.50;0.60;;;12.70;99.90;;;;;;5094900;28;20479;-57
2023/05/25 01:12:40;;;;;;;1.30;0.63;;;12.70;99.90;;;;;;5095703;28;20425;-58
2023/05/25 01:15:09;;;;;;;2.30;0.90;;;12.60;99.90;;;;;;5096459;28;20456;-56
2023/05/25 01:17:37;;;;;;;1.60;0.63;;;12.50;99.90;;;;;;5097784;28;20479;-57
2023/05/25 01:20:06;;;;;;;1.60;0.70;;;12.50;99.90;;;;;;5098171;28;20794;-57
2023/05/25 01:22:39;;;;;;;1.30;0.60;;;12.50;99.90;;;;;;5097294;28;20686;-57
2023/05/25 01:25:10;;;;;;;1.10;0.70;;;12.50;99.90;;;;;;5096607;28;20425;-57
2023/05/25 01:27:44;;;;;;;3.45;0.70;;;12.40;99.90;;;;;;5095983;28;20475;-58
2023/05/25 01:30:15;;;;;;;2.55;0.63;;;12.30;99.90;;;;;;5096542;28;20464;-58
2023/05/25 01:32:43;;;;;;;2.97;0.73;;;12.30;99.90;;;;;;5095758;28;20487;-58
2023/05/25 01:35:11;;;;;;;3.53;0.70;;;12.20;99.90;;;;;;5096280;28;20425;-60
2023/05/25 01:37:45;;;;;;;2.22;0.75;;;12.30;99.90;;;;;;5095662;28;20508;-57
2023/05/25 01:40:13;;;;;;;3.30;0.77;;;12.10;99.90;;;;;;5094879;28;20489;-57
2023/05/25 01:42:41;;;;;;;2.92;0.80;;;12.10;99.90;;;;;;5094232;28;20422;-57
2023/05/25 01:45:10;;;;;;;1.60;0.70;;;12.00;99.90;;;;;;5095089;28;20433;-57
2023/05/25 01:47:44;;;;;;;2.38;0.60;;;11.90;99.90;;;;;;5094900;28;20737;-56
2023/05/25 01:50:26;;;;;;;2.70;0.70;;;11.80;99.90;;;;;;5094778;28;20472;-56
2023/05/25 01:52:59;;;;;;;3.30;0.70;;;11.80;99.90;;;;;;5095410;28;20448;-57
2023/05/25 01:55:28;;;;;;;2.75;0.70;;;11.90;99.90;;;;;;5095335;28;20752;-56
2023/05/25 01:57:59;;;;;;;1.60;0.70;;;12.00;99.90;;;;;;5095355;28;20825;-57
2023/05/25 02:00:30;;;;;;;1.90;0.70;;;12.00;99.90;;;;;;5095042;28;20868;-56
2023/05/25 02:02:57;;;;;;;1.67;0.70;;;12.00;99.90;;;;;;5094991;28;20426;-58
2023/05/25 02:05:26;;;;;;;3.40;0.70;;;11.90;99.90;;;;;;5095714;28;20864;-58
2023/05/25 02:07:55;;;;;;;2.28;0.70;;;11.90;99.90;;;;;;5094986;28;20425;-58
2023/05/25 02:10:22;;;;;;;2.15;0.70;;;11.90;99.90;;;;;;5094555;28;20512;-58
2023/05/25 02:12:49;;;;;;;2.50;0.70;;;11.90;99.90;;;;;;5094673;28;20422;-58
2023/05/25 02:15:16;;;;;;;1.77;0.70;;;11.90;99.90;;;;;;5095395;28;20461;-56
2023/05/25 02:17:43;;;;;;;1.97;0.80;;;11.90;99.90;;;;;;5095040;28;20432;-58
2023/05/25 02:20:12;;;;;;;3.13;0.77;;;11.90;99.90;;;;;;5095026;28;20422;-58
2023/05/25 02:22:39;;;;;;;2.80;0.70;;;11.90;99.90;;;;;;5094311;28;20429;-57
2023/05/25 02:25:08;;;;;;;2.60;0.90;;;11.90;99.90;;;;;;5094874;28;20441;-57
2023/05/25 02:27:36;;;;;;;3.70;0.70;;;11.90;99.90;;;;;;5095304;28;20868;-57
2023/05/25 02:30:07;;;;;;;2.83;0.80;;;11.80;99.90;;;;;;5094511;28;20444;-57
2023/05/25 02:32:34;;;;;;;2.00;0.80;;;11.80;99.90;;;;;;5095385;28;20433;-58
2023/05/25 02:35:01;;;;;;;3.40;0.70;;;11.80;99.90;;;;;;5095425;28;20779;-57
2023/05/25 02:37:28;;;;;;;1.50;0.70;;;11.80;99.90;;;;;;5095491;28;20838;-57
2023/05/25 02:39:56;;;;;;;1.48;0.70;;;11.80;99.90;;;;;;5094585;28;20418;-57
2023/05/25 02:42:24;;;;;;;2.65;0.70;;;11.80;99.90;;;;;;5094709;28;20441;-58
2023/05/25 02:44:51;;;;;;;3.17;0.80;;;11.80;99.90;;;;;;5094822;28;20425;-57
2023/05/25 02:47:19;;;;;;;2.13;0.70;;;11.80;99.90;;;;;;5094942;28;20422;-58
2023/05/25 02:49:46;;;;;;;1.90;0.80;;;11.70;99.90;;;;;;5094073;28;20406;-58
2023/05/25 02:52:13;;;;;;;2.65;0.80;;;11.60;99.90;;;;;;5094581;28;20505;-58
2023/05/25 02:54:41;;;;;;;3.40;0.80;;;11.50;99.90;;;;;;5094747;28;20434;-58
2023/05/25 02:57:09;;;;;;;2.20;0.70;;;11.50;99.90;;;;;;5095016;28;20887;-58
2023/05/25 02:59:37;;;;;;;3.72;0.80;;;11.40;99.90;;;;;;5094566;28;20520;-59
2023/05/25 03:02:05;;;;;;;2.50;0.70;;;11.30;99.90;;;;;;5094189;28;20420;-58
2023/05/25 03:04:33;;;;;;;3.30;0.70;;;11.30;99.90;;;;;;5094217;28;20546;-57
2023/05/25 03:07:00;;;;;;;1.85;0.70;;;11.30;99.90;;;;;;5093502;28;20475;-57
2023/05/25 03:09:27;;;;;;;1.50;0.70;;;11.30;99.90;;;;;;5093026;28;20535;-58
2023/05/25 03:11:54;;;;;;;2.00;0.80;;;11.30;99.90;;;;;;5093738;28;20434;-58
2023/05/25 03:14:21;;;;;;;2.45;0.90;;;11.30;99.90;;;;;;5091538;28;20483;-59
2023/05/25 03:16:50;;;;;;;2.30;0.80;;;11.10;99.90;;;;;;5091694;28;20422;-57
2023/05/25 03:19:19;;;;;;;2.90;1.07;;;11.00;99.90;;;;;;5092251;28;20430;-57
2023/05/25 03:21:46;;;;;;;2.20;0.80;;;11.00;99.90;;;;;;5093262;28;20417;-57
2023/05/25 03:24:13;;;;;;;2.28;0.70;;;11.00;99.90;;;;;;5092736;28;20426;-57
2023/05/25 03:26:40;;;;;;;4.00;0.90;;;11.00;99.90;;;;;;5094880;28;20616;-57
2023/05/25 03:29:07;;;;;;;1.92;0.80;;;11.00;99.90;;;;;;5094849;28;20728;-55
2023/05/25 03:31:35;;;;;;;3.58;0.80;;;10.90;99.90;;;;;;5095734;28;20426;-58
2023/05/25 03:34:03;;;;;;;2.42;1.00;;;10.90;99.90;;;;;;5096637;28;20460;-56
2023/05/25 03:36:32;;;;;;;3.80;0.80;;;11.00;99.90;;;;;;5096040;28;20449;-58
2023/05/25 03:38:59;;;;;;;1.70;0.80;;;11.00;99.90;;;;;;5097029;28;20806;-58
2023/05/25 03:41:27;;;;;;;3.67;0.93;;;11.00;99.90;;;;;;5097649;28;20770;-58
2023/05/25 03:43:54;;;;;;;2.35;0.93;;;11.00;99.90;;;;;;5097159;28;20737;-58
2023/05/25 03:46:21;;;;;;;1.50;0.80;;;11.10;99.90;;;;;;5096483;28;20721;-59
2023/05/25 03:48:48;;;;;;;1.70;0.80;;;11.00;99.90;;;;;;5097297;28;20499;-59
2023/05/25 03:51:16;;;;;;;3.63;0.90;;;11.10;99.90;;;;;;5096602;28;20725;-58
2023/05/25 03:53:43;;;;;;;2.55;0.80;;;11.10;99.90;;;;;;5096126;28;20745;-58
2023/05/25 03:56:10;;;;;;;1.80;0.80;;;11.20;99.90;;;;;;5095685;28;20421;-58
2023/05/25 03:58:37;;;;;;;3.10;0.90;;;11.20;99.90;;;;;;5095631;28;20418;-58
2023/05/25 04:01:04;;;;;;;2.30;0.80;;;11.20;99.90;;;;;;5095988;28;20780;-58
2023/05/25 04:03:32;;;;;;;2.80;0.80;;;11.20;99.90;;;;;;5095865;28;20484;-59
2023/05/25 04:05:59;;;;;;;1.92;0.82;;;11.20;99.90;;;;;;5096748;28;20429;-57
2023/05/25 04:08:28;;;;;;;4.95;0.98;;;11.30;99.90;;;;;;5096608;28;20422;-58
2023/05/25 04:10:56;;;;;;;2.83;1.00;;;11.10;99.90;;;;;;5096295;28;20507;-59
2023/05/25 04:13:23;;;;;;;1.60;0.80;;;11.00;99.90;;;;;;5097160;28;20425;-58
2023/05/25 04:15:50;;;;;;;2.55;0.93;;;11.10;99.90;;;;;;5096035;28;20452;-58
2023/05/25 04:18:19;;;;;;;2.75;0.90;;;11.00;99.90;;;;;;5096043;28;20927;-58
2023/05/25 04:20:46;;;;;;;1.77;0.90;;;11.00;99.90;;;;;;5096838;28;20521;-58
2023/05/25 04:23:13;;;;;;;4.03;0.85;;;11.00;99.90;;;;;;5096782;28;20760;-59
2023/05/25 04:25:42;;;;;;;3.00;0.90;;;10.90;99.90;;;;;;5097247;28;20947;-59
2023/05/25 04:28:11;;;;;;;2.15;1.00;;;10.90;99.90;;;;;;5096511;28;20426;-59
2023/05/25 04:30:38;;;;;;;2.50;0.90;;;10.80;99.90;;;;;;5095527;28;20787;-59
2023/05/25 04:33:05;;;;;;;2.58;0.90;;;10.80;99.90;;;;;;5096128;28;20577;-59
2023/05/25 04:35:32;;;;;;;3.80;0.90;;;10.80;99.90;;;;;;5096507;28;20748;-58
2023/05/25 04:38:01;;;;;;;2.85;1.00;;;10.80;99.90;;;;;;5095999;28;20429;-58
2023/05/25 04:40:28;;;;;;;3.20;1.00;;;11.00;99.90;;;;;;5095352;28;20430;-57
2023/05/25 04:42:57;;;;;;;3.38;0.98;;;11.10;99.90;;;;;;5095854;28;20430;-58
2023/05/25 04:45:24;;;;;;;2.57;1.00;;;11.20;99.90;;;;;;5094842;28;20429;-58
2023/05/25 04:47:51;;;;;;;1.73;0.90;;;11.30;99.90;;;;;;5095145;28;20460;-57
2023/05/25 04:50:19;;;;;;;3.05;0.98;;;11.30;99.90;;;;;;5094023;28;20718;-59
2023/05/25 04:52:46;;;;;;;1.40;0.80;;;11.20;99.90;;;;;;5094592;28;20426;-59
2023/05/25 04:55:13;;;;;;;4.15;0.90;;;11.20;99.90;;;;;;5094959;28;20422;-59
2023/05/25 04:57:40;;;;;;;3.42;0.90;;;11.00;99.90;;;;;;5096502;28;20821;-59
2023/05/25 05:00:11;;;;;;;2.20;0.90;;;10.90;99.90;;;;;;5093907;28;20433;-55
2023/05/25 05:02:38;;;;;;;2.70;1.10;;;10.70;99.90;;;;;;5093159;28;20418;-57
2023/05/25 05:05:06;;;;;;;2.23;0.80;;;10.70;99.90;;;;;;5094919;28;20478;-58
2023/05/25 05:07:33;;;;;;;4.40;0.90;;;10.90;99.90;;;;;;5094430;28;20733;-59
2023/05/25 05:10:00;;;;;;;4.13;0.90;;;11.00;99.90;;;;;;5094956;28;20841;-56
2023/05/25 05:12:27;;;;;;;3.70;1.00;;;11.00;99.90;;;;;;5094290;28;20521;-59
2023/05/25 05:14:54;;;;;;;2.10;1.00;;;10.90;99.90;;;;;;5091891;28;20499;-59
2023/05/25 05:17:25;;;;;;;3.45;1.40;;;10.90;99.90;;;;;;5090255;28;20428;-58
2023/05/25 05:19:52;;;;;;;2.90;1.40;;;11.00;99.90;;;;;;5094011;28;20422;-58
2023/05/25 05:22:19;;;;;;;1.58;0.90;;;11.00;99.90;;;;;;5093313;28;20483;-57
2023/05/25 05:24:46;;;;;;;3.25;1.13;;;11.10;99.90;;;;;;5091630;28;20857;-57
2023/05/25 05:27:14;;;;;;;3.00;1.17;;;11.20;99.90;;;;;;5092499;28;20422;-59
2023/05/25 05:29:41;;;;;;;6.13;1.10;;;11.40;99.90;;;;;;5092594;28;20409;-59
2023/05/25 05:32:08;;;;;;;10.85;1.45;;;11.40;99.90;;;;;;5093087;28;20426;-57
2023/05/25 05:34:37;;;;;;;4.60;1.10;;;11.60;99.90;;;;;;5091614;28;20579;-57
2023/05/25 05:37:04;;;;;;;3.63;1.10;;;11.50;99.90;;;;;;5093610;28;20520;-58
2023/05/25 05:39:31;;;;;;;2.10;0.95;;;11.50;99.90;;;;;;5094473;28;20910;-58
2023/05/25 05:41:58;;;;;;;2.40;1.00;;;11.50;99.90;;;;;;5092725;28;20422;-59
2023/05/25 05:44:25;;;;;;;2.85;1.20;;;11.60;99.90;;;;;;5092093;28;20417;-59
2023/05/25 05:46:58;;;;;;;2.70;1.00;;;11.60;99.90;;;;;;5091192;28;20829;-57
2023/05/25 05:49:25;;;;;;;2.70;0.85;;;11.60;99.90;;;;;;5092348;28;20803;-56
2023/05/25 05:51:54;;;;;;;2.38;1.02;;;11.70;99.90;;;;;;5091820;28;20849;-56
2023/05/25 05:54:21;;;;;;;2.05;1.02;;;11.90;99.90;;;;;;5091872;28;20506;-58
2023/05/25 05:56:48;;;;;;;4.90;1.20;;;12.00;99.90;;;;;;5090041;28;20561;-58
2023/05/25 05:59:15;;;;;;;2.20;1.10;;;12.00;99.90;;;;;;5092274;28;20686;-59
2023/05/25 06:01:42;;;;;;;3.10;1.10;;;12.00;99.90;;;;;;5090158;28;20805;-57
2023/05/25 06:04:10;;;;;;;3.10;1.10;;;12.00;99.90;;;;;;5089044;28;20432;-55
2023/05/25 06:06:39;;;;;;;2.20;1.00;;;12.00;99.90;;;;;;5089408;28;20790;-59
2023/05/25 06:09:07;;;;;;;2.03;1.00;;;12.20;99.90;;;;;;5090965;28;20418;-57
2023/05/25 06:11:36;;;;;;;2.40;0.90;;;12.30;99.90;;;;;;5102755;28;20428;-58
2023/05/25 06:14:03;;;;;;;2.10;1.00;;;12.40;99.90;;;;;;5095853;28;20430;-58
2023/05/25 06:16:30;;;;;;;4.60;1.38;;;12.70;99.90;;;;;;5097989;28;20862;-58
2023/05/25 06:18:57;;;;;;;2.72;1.20;;;12.90;99.90;;;;;;5107905;28;20436;-59
2023/05/25 06:21:25;;;;;;;2.72;0.93;;;12.90;99.90;;;;;;5101078;28;20846;-59
2023/05/25 06:23:52;;;;;;;2.67;1.02;;;12.90;99.90;;;;;;5104705;28;20428;-58
2023/05/25 06:26:20;;;;;;;4.10;1.10;;;13.00;99.90;;;;;;5110986;28;20858;-59
2023/05/25 06:28:48;;;;;;;4.18;1.10;;;12.90;99.90;;;;;;5109957;28;20504;-59
2023/05/25 06:31:16;;;;;;;3.40;1.20;;;13.10;99.90;;;;;;5098641;28;20525;-60
2023/05/25 06:33:43;;;;;;;3.10;1.15;;;13.30;99.90;;;;;;5106170;28;20435;-60
2023/05/25 06:36:10;;;;;;;3.85;1.30;;;13.40;99.90;;;;;;5111455;28;20424;-61
2023/05/25 06:38:37;;;;;;;6.10;1.17;;;13.30;99.90;;;;;;5091278;28;20464;-60
2023/05/25 06:41:06;;;;;;;3.00;1.10;;;13.30;99.90;;;;;;5092475;28;20455;-61
2023/05/25 06:43:36;;;;;;;3.95;1.15;;;13.40;99.90;;;;;;5095321;28;20429;-62
2023/05/25 06:46:04;;;;;;;1.63;1.00;;;13.50;99.90;;;;;;5091531;28;20503;-63
2023/05/25 06:48:31;;;;;;;2.60;1.10;;;13.60;99.90;;;;;;5105410;28;20540;-60
2023/05/25 06:50:58;;;;;;;3.53;1.02;;;13.60;99.90;;;;;;5094460;28;20532;-62
2023/05/25 06:53:25;;;;;;;5.30;1.20;;;13.80;99.90;;;;;;5093708;28;20424;-61
2023/05/25 06:55:52;;;;;;;2.88;1.00;;;14.10;99.90;;;;;;5112009;28;20412;-61
2023/05/25 06:58:20;;;;;;;4.60;1.30;;;14.30;99.90;;;;;;5112084;28;20432;-60
2023/05/25 07:00:48;;;;;;;3.22;1.20;;;14.30;99.90;;;;;;5110434;28;20435;-61
2023/05/25 07:03:15;;;;;;;3.00;1.10;;;14.50;99.90;;;;;;5114676;28;20432;-61
2023/05/25 07:05:42;;;;;;;2.38;1.10;;;14.80;99.90;;;;;;5110934;28;20729;-60
2023/05/25 07:08:09;;;;;;;5.28;1.10;;;14.80;99.90;;;;;;5114831;28;20408;-60
2023/05/25 07:10:36;;;;;;;2.85;1.10;;;14.90;99.90;;;;;;5111505;28;20908;-59
2023/05/25 07:13:03;;;;;;;3.50;1.00;;;15.00;99.90;;;;;;5113069;28;20428;-59
2023/05/25 07:15:30;;;;;;;4.63;1.20;;;15.00;99.90;;;;;;5109583;28;20435;-60
2023/05/25 07:17:59;;;;;;;4.63;1.40;;;15.10;99.90;;;;;;5103592;28;20742;-61
2023/05/25 07:20:26;;;;;;;3.20;1.10;;;15.20;99.90;;;;;;5116372;28;20420;-61
2023/05/25 07:22:53;;;;;;;3.65;1.30;;;15.50;99.90;;;;;;5110604;28;20416;-62
2023/05/25 07:25:20;;;;;;;4.65;1.20;;;15.40;99.90;;;;;;5099086;28;20924;-60
2023/05/25 07:27:49;;;;;;;2.60;1.10;;;15.40;99.90;;;;;;5109018;28;20751;-61
2023/05/25 07:30:16;;;;;;;4.80;1.50;;;15.40;99.90;;;;;;5101941;28;20884;-60
2023/05/25 07:32:43;;;;;;;4.00;1.73;;;15.40;99.90;;;;;;5094816;28;20436;-60
2023/05/25 07:35:11;;;;;;;3.20;1.30;;;15.30;99.90;;;;;;5105103;28;20430;-61
2023/05/25 07:37:38;;;;;;;3.13;1.20;;;15.30;99.90;;;;;;5093570;28;20429;-61
2023/05/25 07:40:07;;;;;;;2.00;1.10;;;15.60;99.90;;;;;;5109031;28;20464;-61
2023/05/25 07:42:34;;;;;;;3.25;1.20;;;15.80;99.90;;;;;;5112812;28;20424;-62
2023/05/25 07:45:01;;;;;;;2.75;1.27;;;15.90;99.90;;;;;;5109708;28;20522;-62
2023/05/25 07:47:28;;;;;;;4.22;1.30;;;15.80;99.90;;;;;;5104112;28;20963;-61
2023/05/25 07:49:55;;;;;;;2.30;1.20;;;15.80;99.90;;;;;;5099759;28;20481;-61
2023/05/25 07:52:23;;;;;;;4.15;1.23;;;15.70;99.90;;;;;;5099556;28;20432;-61
2023/05/25 07:54:50;;;;;;;3.55;1.35;;;15.60;99.90;;;;;;5103144;28;20479;-61
2023/05/25 07:57:17;;;;;;;3.80;1.20;;;15.70;99.90;;;;;;5098031;28;20434;-61
2023/05/25 07:59:44;;;;;;;3.63;1.30;;;15.80;99.90;;;;;;5098079;28;20430;-59
2023/05/25 08:02:12;;;;;;;3.60;1.87;;;15.90;99.90;;;;;;5092813;28;20418;-60
2023/05/25 08:04:39;;;;;;;3.50;1.30;;;15.90;99.90;;;;;;5092245;28;20428;-60
2023/05/25 08:07:06;;;;;;;4.60;1.30;;;16.10;99.90;;;;;;5103341;28;20452;-60
2023/05/25 08:09:34;;;;;;;3.22;1.30;;;16.40;99.90;;;;;;5097360;28;20434;-60
2023/05/25 08:12:01;;;;;;;3.45;1.20;;;16.40;99.90;;;;;;5098145;28;20434;-60
2023/05/25 08:14:28;;;;;;;7.40;1.30;;;16.40;99.90;;;;;;5112338;28;20696;-61
2023/05/25 08:16:55;;;;;;;3.80;1.30;;;16.30;99.90;;;;;;5100487;28;20429;-61
2023/05/25 08:19:22;;;;;;;2.90;1.52;;;16.20;99.90;;;;;;5091808;28;20873;-62
2023/05/25 08:21:50;;;;;;;3.13;1.30;;;16.30;99.90;;;;;;5092731;28;20429;-61
2023/05/25 08:24:17;;;;;;;3.50;1.30;;;16.40;99.90;;;;;;5095211;28;20756;-61
2023/05/25 08:26:46;;;;;;;3.33;1.40;;;16.40;99.90;;;;;;5102019;28;20811;-61
2023/05/25 08:29:13;;;;;;;4.07;1.90;;;16.30;99.90;;;;;;5091172;28;20421;-62
2023/05/25 08:31:42;;;;;;;2.70;1.40;;;16.30;99.90;;;;;;5092282;28;20841;-60
2023/05/25 08:34:10;;;;;;;4.45;1.60;;;16.50;99.90;;;;;;5103322;28;20757;-61
2023/05/25 08:36:37;;;;;;;2.60;1.20;;;16.40;99.90;;;;;;5093615;28;20429;-60
2023/05/25 08:39:06;;;;;;;3.97;1.60;;;16.60;99.90;;;;;;5108653;28;20435;-60
2023/05/25 08:41:35;;;;;;;4.45;1.70;;;16.60;99.90;;;;;;5112093;28;20490;-60
2023/05/25 08:44:06;;;;;;;2.95;1.30;;;16.60;99.90;;;;;;5113796;28;20481;-60
2023/05/25 08:46:36;;;;;;;4.10;1.38;;;16.70;99.90;;;;;;5106334;28;20428;-60
2023/05/25 08:49:08;;;;;;;2.83;1.30;;;16.90;99.90;;;;;;5097985;28;20527;-61
2023/05/25 08:51:37;;;;;;;5.38;1.40;;;17.10;99.90;;;;;;5110714;28;20435;-60
2023/05/25 08:54:07;;;;;;;3.20;1.23;;;17.40;99.90;;;;;;5107175;28;20472;-61
2023/05/25 08:56:41;;;;;;;5.60;1.60;;;17.70;99.90;;;;;;5096159;28;20460;-61
2023/05/25 08:59:18;;;;;;;3.45;1.42;;;17.80;99.90;;;;;;5097357;28;20436;-60
2023/05/25 09:01:50;;;;;;;1.98;1.20;;;17.70;99.90;;;;;;5092925;28;20425;-59
2023/05/25 09:04:18;;;;;;;2.42;1.30;;;17.80;99.90;;;;;;5103630;28;20431;-61
2023/05/25 09:06:47;;;;;;;3.58;1.45;;;17.90;99.90;;;;;;5111644;28;20786;-61
2023/05/25 09:09:14;;;;;;;4.33;1.30;;;17.90;99.90;;;;;;5108246;28;20436;-62
2023/05/25 09:11:43;;;;;;;4.07;1.40;;;18.00;99.90;;;;;;5108240;28;20461;-62
2023/05/25 09:14:11;;;;;;;4.20;1.50;;;17.80;99.90;;;;;;5090740;28;20671;-60
2023/05/25 09:16:40;;;;;;;2.85;1.50;;;17.90;99.90;;;;;;5094131;28;20417;-61
2023/05/25 09:19:07;;;;;;;3.83;2.00;;;18.10;99.90;;;;;;5095434;28;20479;-61
2023/05/25 09:21:34;;;;;;;3.20;1.27;;;18.20;99.90;;;;;;5096814;28;20428;-60
2023/05/25 09:24:02;;;;;;;2.50;1.40;;;18.00;99.90;;;;;;5097294;28;20472;-61
2023/05/25 09:26:29;;;;;;;4.40;1.40;;;18.20;99.90;;;;;;5097360;28;20784;-61
2023/05/25 09:28:57;;;;;;;2.60;1.60;;;18.00;99.90;;;;;;5090753;28;20428;-61
2023/05/25 09:31:25;;;;;;;4.40;1.30;;;18.10;99.90;;;;;;5099041;28;20423;-61
2023/05/25 09:33:58;;;;;;;4.55;1.42;;;18.10;99.90;;;;;;5107276;28;20489;-60
2023/05/25 09:36:26;;;;;;;3.50;1.50;;;18.20;99.90;;;;;;5106412;28;20843;-60
2023/05/25 09:38:54;;;;;;;2.20;1.30;;;18.30;99.90;;;;;;5093138;28;20887;-61
2023/05/25 09:41:22;;;;;;;1.95;1.23;;;18.40;99.90;;;;;;5103880;28;20884;-61
2023/05/25 09:43:49;;;;;;;3.72;1.30;;;18.40;99.90;;;;;;5103083;28;20416;-62
2023/05/25 09:46:16;;;;;;;3.38;1.50;;;18.50;99.90;;;;;;5093725;28;20690;-59
2023/05/25 09:48:47;;;;;;;2.50;1.50;;;18.70;99.90;;;;;;5105235;28;20420;-62
2023/05/25 09:51:14;;;;;;;3.78;1.40;;;18.80;99.90;;;;;;5106287;28;20784;-61
2023/05/25 09:53:41;;;;;;;2.10;1.40;;;19.00;99.90;;;;;;5095965;28;20429;-62
2023/05/25 09:56:08;;;;;;;3.57;1.30;;;19.10;99.90;;;;;;5095335;28;20423;-60
2023/05/25 09:58:36;;;;;;;3.20;1.40;;;19.20;99.90;;;;;;5100843;28;20420;-61
2023/05/25 10:01:04;;;;;;;4.78;1.50;;;19.40;99.90;;;;;;5111350;28;20431;-59
2023/05/25 10:03:31;;;;;;;4.80;1.43;;;19.60;99.90;;;;;;5098655;28;20729;-61
2023/05/25 10:06:01;;;;;;;2.30;1.25;;;20.00;99.90;;;;;;5090760;28;20681;-61
2023/05/25 10:08:29;;;;;;;2.03;1.40;;;20.10;99.90;;;;;;5088335;28;20856;-62
2023/05/25 10:10:56;;;;;;;2.20;1.27;;;20.30;99.90;;;;;;5089266;28;20521;-61
2023/05/25 10:13:27;;;;;;;4.40;1.40;;;20.40;99.90;;;;;;5089062;28;20744;-61
2023/05/25 10:15:55;;;;;;;3.07;1.43;;;20.30;99.90;;;;;;5088797;28;20425;-62
2023/05/25 10:18:26;;;;;;;3.75;1.33;;;20.30;99.90;;;;;;5087149;28;20429;-62
2023/05/25 10:20:59;;;;;;;2.50;1.20;;;20.40;99.90;;;;;;5089194;28;20429;-61
2023/05/25 10:23:35;;;;;;;3.37;1.27;;;20.70;99.90;;;;;;5087926;28;20429;-61
2023/05/25 10:26:05;;;;;;;3.60;1.38;;;20.90;99.90;;;;;;5091011;28;20737;-61
2023/05/25 10:28:39;;;;;;;3.40;1.30;;;21.30;99.90;;;;;;5095077;28;20429;-60
2023/05/25 10:31:08;;;;;;;1.83;1.15;;;21.50;99.90;;;;;;5089721;28;20422;-60
2023/05/25 10:33:37;;;;;;;2.78;1.20;;;21.60;99.90;;;;;;5109611;28;20440;-60
2023/05/25 10:36:05;;;;;;;2.05;1.30;;;21.40;99.90;;;;;;5116702;28;20420;-61
2023/05/25 10:38:34;;;;;;;2.63;1.20;;;21.40;99.90;;;;;;5115582;28;20439;-60
2023/05/25 10:41:05;;;;;;;2.70;1.10;;;21.40;99.90;;;;;;5115446;28;20420;-61
2023/05/25 10:43:33;;;;;;;2.25;1.30;;;21.70;99.90;;;;;;5114660;28;20420;-60
2023/05/25 10:46:00;;;;;;;2.20;1.30;;;21.80;99.90;;;;;;5114455;28;20423;-62
2023/05/25 10:48:36;;;;;;;1.65;1.20;;;21.80;99.90;;;;;;5106974;28;20430;-62
2023/05/25 10:51:03;;;;;;;3.70;1.40;;;21.80;99.90;;;;;;5099415;28;20428;-61
2023/05/25 10:53:30;;;;;;;3.20;1.20;;;21.80;99.90;;;;;;5115358;28;20424;-61
2023/05/25 10:56:06;;;;;;;3.65;1.30;;;21.70;99.90;;;;;;5116571;28;20416;-62
2023/05/25 10:58:34;;;;;;;3.03;1.30;;;21.60;99.90;;;;;;5115567;28;20420;-61
2023/05/25 11:01:02;;;;;;;1.95;1.10;;;21.70;99.90;;;;;;5116069;28;20518;-62
2023/05/25 11:03:48;;;;;;;2.10;1.20;;;21.80;99.90;;;;;;5115759;28;20701;-61
2023/05/25 11:06:17;;;;;;;2.88;1.20;;;22.10;99.90;;;;;;5116616;28;20443;-61
2023/05/25 11:08:53;;;;;;;3.08;1.17;;;22.10;99.90;;;;;;5118204;28;20473;-60
2023/05/25 11:11:22;;;;;;;3.10;1.30;;;21.90;99.90;;;;;;5117574;28;20739;-61
2023/05/25 11:13:50;;;;;;;1.70;1.20;;;22.00;99.90;;;;;;5107312;28;20432;-61
2023/05/25 11:16:19;;;;;;;2.15;1.00;;;21.70;99.90;;;;;;5098088;28;20738;-61
2023/05/25 11:18:50;;;;;;;3.28;1.40;;;21.60;99.90;;;;;;5097217;28;20906;-61
2023/05/25 11:21:22;;;;;;;4.35;1.50;;;21.90;99.90;;;;;;5104543;28;20521;-60
2023/05/25 11:23:56;;;;;;;2.47;1.35;;;22.00;99.90;;;;;;5102593;28;20765;-60
2023/05/25 11:26:26;;;;;;;3.20;1.20;;;22.00;99.90;;;;;;5098560;28;20509;-61
2023/05/25 11:28:53;;;;;;;3.45;1.70;;;22.00;99.90;;;;;;5096106;28;20424;-61
2023/05/25 11:31:24;;;;;;;1.98;1.30;;;22.40;99.90;;;;;;5094573;28;20429;-60
2023/05/25 11:33:57;;;;;;;1.80;1.17;;;22.70;99.90;;;;;;5109570;28;20892;-60
2023/05/25 11:36:24;;;;;;;1.87;1.10;;;22.90;99.90;;;;;;5095215;28;20523;-61
2023/05/25 11:38:53;;;;;;;1.73;1.10;;;23.10;99.90;;;;;;5100674;28;20957;-61
2023/05/25 11:41:20;;;;;;;2.60;1.05;;;23.00;99.90;;;;;;5115686;28;20503;-61
2023/05/25 11:43:50;;;;;;;2.80;1.20;;;22.80;99.90;;;;;;5115094;28;20432;-60
2023/05/25 11:46:18;;;;;;;1.90;1.10;;;22.70;99.90;;;;;;5114487;28;20511;-61
2023/05/25 11:48:50;;;;;;;2.20;1.20;;;22.70;99.90;;;;;;5115271;28;20508;-61
2023/05/25 11:51:18;;;;;;;3.33;1.30;;;22.60;99.90;;;;;;5112198;28;20547;-61
2023/05/25 11:53:45;;;;;;;3.20;1.10;;;22.60;99.90;;;;;;5114230;28;20442;-62
2023/05/25 11:56:13;;;;;;;2.42;1.20;;;22.70;99.90;;;;;;5115134;28;20420;-62
2023/05/25 11:58:43;;;;;;;2.50;1.20;;;22.60;99.90;;;;;;5113045;28;20420;-61
2023/05/25 12:01:20;;;;;;;1.60;1.05;;;22.60;99.90;;;;;;5113929;28;20439;-60
2023/05/25 12:03:47;;;;;;;2.00;1.30;;;22.80;99.90;;;;;;5115829;28;20427;-61
2023/05/25 12:06:26;;;;;;;1.70;1.10;;;22.90;99.90;;;;;;5105823;28;20445;-62
2023/05/25 12:08:53;;;;;;;4.00;1.30;;;22.80;99.90;;;;;;5093708;28;20488;-61
2023/05/25 12:11:28;;;;;;;3.60;1.20;;;22.80;99.90;;;;;;5106331;28;20465;-61
2023/05/25 12:13:55;;;;;;;1.95;1.15;;;22.90;99.90;;;;;;5098932;28;20428;-59
2023/05/25 12:16:24;;;;;;;2.60;1.10;;;22.70;99.90;;;;;;5095349;28;20845;-60
2023/05/25 12:18:52;;;;;;;2.00;1.10;;;22.90;99.90;;;;;;5094085;28;20903;-59
2023/05/25 12:21:20;;;;;;;2.50;1.20;;;22.90;99.90;;;;;;5095617;28;20852;-61
2023/05/25 12:23:48;;;;;;;1.95;1.10;;;23.10;99.90;;;;;;5091575;28;20444;-61
2023/05/25 12:26:17;;;;;;;2.15;1.10;;;22.80;99.90;;;;;;5095244;28;20876;-60
2023/05/25 12:28:59;;;;;;;2.30;1.30;;;22.60;99.90;;;;;;5100663;28;20426;-60
2023/05/25 12:31:28;;;;;;;2.58;1.10;;;22.80;99.90;;;;;;5102358;28;20483;-60
2023/05/25 12:34:09;;;;;;;3.00;1.25;;;22.80;99.90;;;;;;5110291;28;20499;-60
2023/05/25 12:36:41;;;;;;;1.65;1.13;;;22.90;99.90;;;;;;5092602;28;20562;-59
2023/05/25 12:39:10;;;;;;;2.50;1.08;;;22.80;99.90;;;;;;5093877;28;20527;-59
2023/05/25 12:41:47;;;;;;;2.25;1.30;;;22.50;99.90;;;;;;5099867;28;20469;-58
2023/05/25 12:44:22;;;;;;;3.83;1.20;;;22.80;99.90;;;;;;5092627;28;20494;-59
2023/05/25 12:46:52;;;;;;;2.42;1.30;;;23.00;99.90;;;;;;5094470;28;20433;-60
2023/05/25 12:49:30;;;;;;;3.00;1.17;;;23.10;99.90;;;;;;5095866;28;21912;-61
2023/05/25 12:51:58;;;;;;;2.50;1.20;;;23.00;99.90;;;;;;5114849;28;20424;-59
2023/05/25 12:54:36;;;;;;;3.33;1.20;;;23.10;99.90;;;;;;5112595;28;20432;-59